Time;durP1;ratioP1;P1;durP2;ratioP2;P2;SDS_P1;SDS_P2;PMS_P1;PMS_P2;Temp;Humidity;BMP_temperature;BMP_pressure;BME280_temperature;BME280_humidity;BME280_pressure;Samples;Min_cycle;Max_cycle;Signal;HPM_P1;HPM_P2
2021/04/09 00:01:49;;;;;;;43.88;24.33;;;26.40;2201.60;;;;;;5070724;28;20441;-69
2021/04/09 00:04:14;;;;;;;47.03;26.65;;;26.50;2201.60;;;;;;5071064;28;20039;-68
2021/04/09 00:06:41;;;;;;;51.05;28.40;;;51.20;2227.20;;;;;;5070672;28;20490;-68
2021/04/09 00:09:08;;;;;;;50.42;27.75;;;51.20;2227.20;;;;;;5070577;28;20036;-68
2021/04/09 00:11:33;;;;;;;49.50;28.25;;;51.20;2227.20;;;;;;5070832;28;20070;-68
2021/04/09 00:13:59;;;;;;;57.47;29.10;;;51.30;2227.20;;;;;;5074019;28;20028;-68
2021/04/09 00:16:25;;;;;;;54.97;29.42;;;51.30;2227.20;;;;;;5091285;28;20024;-68
2021/04/09 00:18:51;;;;;;;51.92;29.50;;;51.30;2227.20;;;;;;5090559;28;20020;-68
2021/04/09 00:21:17;;;;;;;58.40;30.67;;;51.30;2227.20;;;;;;5076758;28;20095;-68
2021/04/09 00:23:42;;;;;;;73.82;35.10;;;51.30;2227.20;;;;;;5090967;28;20026;-68
2021/04/09 00:26:08;;;;;;;64.07;34.65;;;51.30;2227.20;;;;;;5091068;28;20422;-68
2021/04/09 00:28:34;;;;;;;61.70;33.33;;;51.30;2227.20;;;;;;5090727;28;20474;-69
2021/04/09 00:31:00;;;;;;;60.40;30.42;;;51.20;2227.20;;;;;;5090590;28;20394;-68
2021/04/09 00:33:25;;;;;;;47.80;26.52;;;51.20;2227.20;;;;;;5090683;28;20111;-68
2021/04/09 00:35:51;;;;;;;43.20;23.67;;;51.30;2227.20;;;;;;5090544;28;20066;-68
2021/04/09 00:38:17;;;;;;;45.63;24.50;;;51.30;2227.20;;;;;;5090843;28;20499;-68
2021/04/09 00:40:43;;;;;;;48.25;25.95;;;51.30;2227.20;;;;;;5090700;28;20027;-68
2021/04/09 00:43:09;;;;;;;49.55;25.50;;;51.30;2227.20;;;;;;5090948;28;20047;-68
2021/04/09 00:45:36;;;;;;;48.05;25.67;;;51.30;2227.20;;;;;;5091042;28;20024;-69
2021/04/09 00:48:04;;;;;;;57.13;30.17;;;51.30;2227.20;;;;;;5090731;28;20052;-68
2021/04/09 00:50:30;;;;;;;58.35;29.38;;;51.30;2227.20;;;;;;5090527;28;20525;-68
2021/04/09 00:52:58;;;;;;;62.58;30.20;;;51.30;2227.20;;;;;;5090634;28;20032;-68
2021/04/09 00:55:24;;;;;;;62.45;31.33;;;51.30;2227.20;;;;;;5093901;28;20076;-69
2021/04/09 00:57:51;;;;;;;53.65;27.73;;;51.30;2227.20;;;;;;5094853;28;20074;-68
2021/04/09 01:00:18;;;;;;;49.85;27.08;;;51.40;2227.20;;;;;;5094677;28;20020;-68
2021/04/09 01:02:44;;;;;;;47.10;25.42;;;51.40;2227.20;;;;;;5094434;28;20133;-68
2021/04/09 01:05:15;;;;;;;54.85;30.20;;;51.50;2227.20;;;;;;5094826;28;20139;-68
2021/04/09 01:07:42;;;;;;;44.95;24.02;;;51.50;2227.20;;;;;;5094350;28;20028;-68
2021/04/09 01:10:10;;;;;;;36.83;22.10;;;51.50;2227.20;;;;;;5094379;28;20020;-68
2021/04/09 01:12:36;;;;;;;35.83;20.25;;;51.50;2227.20;;;;;;5093137;28;20486;-69
2021/04/09 01:15:04;;;;;;;37.33;23.90;;;51.30;2227.20;;;;;;5094335;28;20024;-68
2021/04/09 01:17:35;;;;;;;32.10;18.27;;;51.20;2227.20;;;;;;5092971;28;20024;-69
2021/04/09 01:20:34;;;;;;;28.65;17.27;;;26.50;2201.60;;;;;;5094120;28;20016;-68
2021/04/09 01:23:16;;;;;;;26.98;15.07;;;26.50;2201.60;;;;;;5094429;28;20024;-68
2021/04/09 01:25:53;;;;;;;25.40;15.27;;;26.40;2201.60;;;;;;5094192;28;20057;-68
2021/04/09 01:28:41;;;;;;;23.95;14.93;;;26.30;2201.60;;;;;;5093929;28;20025;-69
2021/04/09 01:31:26;;;;;;;26.63;18.05;;;26.10;2201.60;;;;;;5094135;28;20048;-68
2021/04/09 01:33:56;;;;;;;24.55;13.23;;;26.00;2201.60;;;;;;5093406;28;20489;-68
2021/04/09 01:36:45;;;;;;;25.70;13.80;;;25.70;2201.60;;;;;;5094238;28;20024;-69
2021/04/09 01:39:17;;;;;;;25.70;14.43;;;25.60;2201.60;;;;;;5093582;28;20493;-68
2021/04/09 01:41:44;;;;;;;31.58;16.77;;;0.90;2201.60;;;;;;5093943;28;20375;-68
2021/04/09 01:44:11;;;;;;;30.33;16.02;;;25.60;2201.60;;;;;;5093602;28;20070;-68
2021/04/09 01:46:41;;;;;;;31.45;17.70;;;25.70;2201.60;;;;;;5093734;28;20028;-68
2021/04/09 01:49:09;;;;;;;29.80;16.15;;;25.70;2201.60;;;;;;5093471;28;20494;-68
2021/04/09 01:51:36;;;;;;;37.92;20.92;;;25.70;2201.60;;;;;;5093751;28;20036;-68
2021/04/09 01:54:03;;;;;;;32.97;20.13;;;25.70;2201.60;;;;;;5093437;28;20107;-68
2021/04/09 01:56:31;;;;;;;45.72;21.83;;;25.80;2201.60;;;;;;5093820;28;20052;-68
2021/04/09 01:58:58;;;;;;;32.40;17.13;;;25.70;2201.60;;;;;;5093042;28;20020;-69
2021/04/09 02:01:24;;;;;;;28.95;15.85;;;25.80;2201.60;;;;;;5092696;28;20107;-69
2021/04/09 02:03:53;;;;;;;31.35;16.08;;;25.80;2201.60;;;;;;5094106;28;20506;-69
2021/04/09 02:06:21;;;;;;;29.45;16.00;;;25.70;2201.60;;;;;;5093304;28;20385;-68
2021/04/09 02:08:48;;;;;;;26.75;14.43;;;25.70;2201.60;;;;;;5092921;28;20043;-68
2021/04/09 02:11:15;;;;;;;22.48;12.88;;;25.70;2201.60;;;;;;5093615;28;20394;-69
2021/04/09 02:13:40;;;;;;;21.70;13.23;;;25.60;2201.60;;;;;;5093161;28;20020;-68
2021/04/09 02:16:08;;;;;;;23.83;13.57;;;0.90;2201.60;;;;;;5093225;28;20031;-69
2021/04/09 02:18:35;;;;;;;23.13;12.55;;;0.90;2201.60;;;;;;5092809;28;20020;-70
2021/04/09 02:21:01;;;;;;;22.95;13.02;;;0.90;2201.60;;;;;;5091944;28;20428;-72
2021/04/09 02:23:28;;;;;;;28.88;16.05;;;0.90;2201.60;;;;;;5092860;28;20020;-72
2021/04/09 02:25:58;;;;;;;35.45;18.25;;;0.80;2201.60;;;;;;5090838;28;20555;-69
2021/04/09 02:28:25;;;;;;;31.20;17.75;;;0.70;2201.60;;;;;;5092801;28;20117;-68
2021/04/09 02:31:11;;;;;;;39.13;20.42;;;0.70;2201.60;;;;;;5092833;28;20028;-68
2021/04/09 02:33:38;;;;;;;38.58;19.52;;;0.60;2201.60;;;;;;5092727;28;20032;-68
2021/04/09 02:36:24;;;;;;;45.92;23.40;;;0.60;2201.60;;;;;;5093031;28;20016;-68
2021/04/09 02:38:53;;;;;;;45.78;22.85;;;0.50;2201.60;;;;;;5092459;28;20027;-69
2021/04/09 02:41:21;;;;;;;45.90;23.77;;;0.50;2201.60;;;;;;5093058;28;20097;-68
2021/04/09 02:43:47;;;;;;;44.80;24.05;;;0.50;2201.60;;;;;;5092617;28;20123;-68
2021/04/09 02:46:35;;;;;;;46.25;24.90;;;0.50;2201.60;;;;;;5092802;28;20028;-68
2021/04/09 02:49:06;;;;;;;47.45;25.48;;;0.40;2201.60;;;;;;5092491;28;20070;-69
2021/04/09 02:51:34;;;;;;;40.60;21.83;;;0.40;2201.60;;;;;;5092611;28;20032;-68
2021/04/09 02:54:01;;;;;;;38.78;21.95;;;0.30;2201.60;;;;;;5092223;28;20517;-68
2021/04/09 02:56:29;;;;;;;39.58;20.55;;;0.30;2201.60;;;;;;5092587;28;20077;-69
2021/04/09 02:59:00;;;;;;;38.47;20.10;;;0.30;2201.60;;;;;;5091997;28;20508;-68
2021/04/09 03:01:27;;;;;;;29.88;17.65;;;0.30;2201.60;;;;;;5092274;28;20102;-68
2021/04/09 03:03:55;;;;;;;31.20;16.88;;;0.30;2201.60;;;;;;5092407;28;20050;-68
2021/04/09 03:06:22;;;;;;;22.63;14.95;;;0.20;2201.60;;;;;;5092590;28;20024;-68
2021/04/09 03:08:48;;;;;;;27.77;16.00;;;0.20;2201.60;;;;;;5091977;28;20078;-69
2021/04/09 03:11:14;;;;;;;30.50;16.98;;;0.10;2201.60;;;;;;5092125;28;20504;-68
2021/04/09 03:13:40;;;;;;;31.15;17.45;;;0.00;2201.60;;;;;;5092090;28;20032;-69
2021/04/09 03:16:09;;;;;;;38.03;19.80;;;0.00;2201.60;;;;;;5091828;28;20020;-68
2021/04/09 03:18:38;;;;;;;43.30;22.67;;;12.90;2201.60;;;;;;5091363;28;20036;-69
2021/04/09 03:21:05;;;;;;;34.63;18.13;;;12.90;2201.60;;;;;;5092058;28;20024;-68
2021/04/09 03:23:30;;;;;;;30.35;16.55;;;12.90;2201.60;;;;;;5091553;28;20485;-69
2021/04/09 03:25:56;;;;;;;28.42;16.58;;;12.90;2201.60;;;;;;5091986;28;20074;-68
2021/04/09 03:28:22;;;;;;;24.67;14.82;;;13.00;2201.60;;;;;;5091629;28;20047;-69
2021/04/09 03:30:50;;;;;;;28.05;16.02;;;13.00;2201.60;;;;;;5091672;28;20434;-68
2021/04/09 03:33:21;;;;;;;33.63;17.35;;;13.00;2201.60;;;;;;5091620;28;20038;-68
2021/04/09 03:35:47;;;;;;;35.08;19.63;;;13.10;2201.60;;;;;;5091882;28;20024;-68
2021/04/09 03:38:15;;;;;;;32.72;16.92;;;13.10;2201.60;;;;;;5091746;28;20016;-68
2021/04/09 03:40:41;;;;;;;32.72;17.55;;;13.10;2201.60;;;;;;5091147;28;20478;-68
2021/04/09 03:43:12;;;;;;;30.55;16.10;;;13.10;2201.60;;;;;;5091939;28;20052;-68
2021/04/09 03:45:38;;;;;;;27.88;16.73;;;13.10;2201.60;;;;;;5091278;28;20028;-69
2021/04/09 03:48:05;;;;;;;25.90;15.18;;;13.10;2201.60;;;;;;5091764;28;20493;-68
2021/04/09 03:50:30;;;;;;;30.30;18.50;;;13.20;2201.60;;;;;;5090932;28;20036;-70
2021/04/09 03:52:57;;;;;;;32.78;18.33;;;13.30;2201.60;;;;;;5091372;28;20043;-68
2021/04/09 03:55:23;;;;;;;37.22;19.75;;;13.30;2201.60;;;;;;5091400;28;20023;-69
2021/04/09 03:57:49;;;;;;;37.40;19.92;;;13.30;2201.60;;;;;;5063524;28;20386;-69
2021/04/09 04:00:16;;;;;;;63.42;27.77;;;13.30;2201.60;;;;;;5091412;28;20430;-68
2021/04/09 04:02:41;;;;;;;74.97;30.33;;;13.30;2201.60;;;;;;5091588;28;20355;-68
2021/04/09 04:05:08;;;;;;;72.68;30.30;;;13.30;2201.60;;;;;;5091305;28;20024;-68
2021/04/09 04:07:34;;;;;;;61.22;26.40;;;13.30;2201.60;;;;;;5091014;28;20020;-68
2021/04/09 04:10:00;;;;;;;68.30;30.42;;;13.30;2201.60;;;;;;5091115;28;20026;-68
2021/04/09 04:12:26;;;;;;;68.93;29.80;;;13.30;2201.60;;;;;;5090976;28;20396;-68
2021/04/09 04:14:52;;;;;;;67.78;29.67;;;13.20;2201.60;;;;;;5091205;28;20065;-68
2021/04/09 04:17:19;;;;;;;62.20;27.80;;;13.20;2201.60;;;;;;5091109;28;20039;-69
2021/04/09 04:19:45;;;;;;;53.53;24.90;;;13.20;2201.60;;;;;;5091012;28;20103;-69
2021/04/09 04:22:10;;;;;;;58.42;25.35;;;13.10;2201.60;;;;;;5090990;28;20478;-69
2021/04/09 04:24:36;;;;;;;53.80;24.75;;;13.10;2201.60;;;;;;5090853;28;20051;-69
2021/04/09 04:27:02;;;;;;;57.25;26.38;;;13.00;2201.60;;;;;;5090929;28;20012;-69
2021/04/09 04:29:28;;;;;;;62.45;26.90;;;12.90;2201.60;;;;;;5090370;28;20032;-70
2021/04/09 04:31:54;;;;;;;69.63;29.08;;;0.10;2201.60;;;;;;5090834;28;20183;-68
2021/04/09 04:34:20;;;;;;;75.03;30.08;;;0.30;2201.60;;;;;;5081322;28;20021;-70
2021/04/09 04:36:45;;;;;;;74.07;31.67;;;0.60;2201.60;;;;;;5085625;28;20224;-69
2021/04/09 04:39:11;;;;;;;65.78;29.33;;;0.80;2201.60;;;;;;5090416;28;20172;-70
2021/04/09 04:41:38;;;;;;;59.63;27.17;;;25.70;2201.60;;;;;;5090741;28;20073;-69
2021/04/09 04:44:04;;;;;;;52.47;25.92;;;26.00;2201.60;;;;;;5091151;28;20055;-69
2021/04/09 04:46:30;;;;;;;44.13;21.83;;;26.50;2201.60;;;;;;5090543;28;20024;-69
2021/04/09 04:48:56;;;;;;;32.58;18.67;;;51.60;2227.20;;;;;;5090296;28;20381;-69
2021/04/09 04:51:25;;;;;;;32.42;17.55;;;52.10;2227.20;;;;;;5090624;28;20027;-69
2021/04/09 04:53:50;;;;;;;30.17;17.08;;;77.20;2227.20;;;;;;5090426;28;20078;-68
2021/04/09 04:56:16;;;;;;;29.35;17.35;;;102.40;2227.20;;;;;;5090590;28;20428;-69
2021/04/09 04:58:42;;;;;;;22.63;15.10;;;102.80;2227.20;;;;;;5090543;28;20020;-69
2021/04/09 05:01:08;;;;;;;27.23;15.27;;;103.30;2201.60;;;;;;5090547;28;20020;-69
2021/04/09 05:03:33;;;;;;;22.67;14.65;;;128.60;2150.40;;;;;;5090584;28;20055;-70
2021/04/09 05:05:59;;;;;;;22.50;14.88;;;153.70;2048.00;;;;;;5090436;28;20081;-69
2021/04/09 05:08:25;;;;;;;23.75;15.48;;;154.30;1971.20;;;;;;5090525;28;20103;-70
2021/04/09 05:10:51;;;;;;;25.58;15.80;;;179.40;1894.40;;;;;;5090090;28;20062;-70
2021/04/09 05:13:16;;;;;;;22.38;14.60;;;179.70;1817.60;;;;;;5090336;28;20119;-69
2021/04/09 05:15:42;;;;;;;22.80;14.77;;;180.10;1792.00;;;;;;5090671;28;20035;-69
2021/04/09 05:18:08;;;;;;;21.23;15.05;;;205.20;1766.40;;;;;;5090628;28;20020;-69
2021/04/09 05:20:34;;;;;;;24.10;15.23;;;205.70;1715.20;;;;;;5090025;28;20028;-70
2021/04/09 05:22:59;;;;;;;23.38;15.75;;;230.80;1638.40;;;;;;5090360;28;20035;-68
2021/04/09 05:25:25;;;;;;;25.58;16.48;;;231.20;1612.80;;;;;;5089995;28;20031;-70
2021/04/09 05:27:51;;;;;;;26.00;17.13;;;256.50;1561.60;;;;;;5090716;28;20020;-70
2021/04/09 05:30:17;;;;;;;29.52;18.70;;;281.60;1536.00;;;;;;5089645;28;20023;-71
2021/04/09 05:32:43;;;;;;;34.58;21.92;;;281.70;1536.00;;;;;;5090311;28;20035;-69
2021/04/09 05:35:10;;;;;;;26.65;18.40;;;282.30;1484.80;;;;;;5090126;28;20024;-71
2021/04/09 05:37:35;;;;;;;26.10;20.58;;;307.30;1484.80;;;;;;5090423;28;20027;-70
2021/04/09 05:40:02;;;;;;;31.13;23.40;;;307.70;1459.20;;;;;;5090704;28;20485;-69
2021/04/09 05:42:27;;;;;;;33.38;20.58;;;332.80;1459.20;;;;;;5093947;28;20035;-70
2021/04/09 05:44:53;;;;;;;30.60;20.73;;;333.20;1408.00;;;;;;5093946;28;20024;-69
2021/04/09 05:47:19;;;;;;;30.80;21.10;;;333.40;1382.40;;;;;;5093649;28;20023;-70
2021/04/09 05:49:45;;;;;;;35.05;23.67;;;333.70;1382.40;;;;;;5093644;28;20500;-70
2021/04/09 05:52:10;;;;;;;32.33;23.35;;;358.90;1331.20;;;;;;5093575;28;20107;-67
2021/04/09 05:54:37;;;;;;;30.48;22.90;;;384.00;1305.60;;;;;;5093645;28;20121;-71
2021/04/09 05:57:04;;;;;;;33.00;23.35;;;384.40;1254.40;;;;;;5093634;28;20027;-69
2021/04/09 05:59:29;;;;;;;39.92;26.13;;;384.40;1254.40;;;;;;5093453;28;20374;-70
2021/04/09 06:01:55;;;;;;;46.10;31.05;;;409.60;1254.40;;;;;;5093800;28;20029;-70
2021/04/09 06:04:21;;;;;;;47.85;32.15;;;410.00;1228.80;;;;;;5093327;28;20038;-70
2021/04/09 06:06:47;;;;;;;48.78;33.22;;;410.00;1203.20;;;;;;5093818;28;20034;-68
2021/04/09 06:09:13;;;;;;;46.65;31.52;;;410.10;1203.20;;;;;;5092993;28;20020;-68
2021/04/09 06:11:40;;;;;;;41.03;29.10;;;410.20;1203.20;;;;;;5093308;28;20027;-69
2021/04/09 06:14:05;;;;;;;39.20;27.77;;;410.30;1228.80;;;;;;5089514;28;20024;-67
2021/04/09 06:16:31;;;;;;;41.05;29.40;;;435.70;1152.00;;;;;;5072970;28;20013;-68
2021/04/09 06:18:58;;;;;;;31.45;24.23;;;435.90;1152.00;;;;;;5072640;28;20052;-68
2021/04/09 06:21:24;;;;;;;33.35;22.40;;;460.80;1152.00;;;;;;5072762;28;20515;-68
2021/04/09 06:23:49;;;;;;;31.30;22.55;;;461.20;1126.40;;;;;;5093704;28;20142;-67
2021/04/09 06:26:15;;;;;;;29.05;22.15;;;486.40;1100.80;;;;;;5093010;28;20050;-67
2021/04/09 06:28:41;;;;;;;25.98;20.67;;;461.70;1100.80;;;;;;5092700;28;20498;-68
2021/04/09 06:31:07;;;;;;;23.88;18.73;;;461.70;1100.80;;;;;;5092876;28;20032;-68
2021/04/09 06:33:34;;;;;;;24.63;19.92;;;487.00;1049.60;;;;;;5092694;28;20035;-67
2021/04/09 06:36:00;;;;;;;22.10;15.35;;;487.00;1049.60;;;;;;5093044;28;20020;-70
2021/04/09 06:38:25;;;;;;;16.55;13.15;;;486.70;1049.60;;;;;;5092333;28;20034;-68
2021/04/09 06:40:51;;;;;;;16.50;13.48;;;461.60;1049.60;;;;;;5092698;28;20043;-68
2021/04/09 06:43:18;;;;;;;18.35;13.75;;;435.90;1100.80;;;;;;5092742;28;20375;-68
2021/04/09 06:45:44;;;;;;;17.52;14.52;;;410.50;1100.80;;;;;;5092691;28;20032;-68
2021/04/09 06:48:10;;;;;;;22.52;17.40;;;435.70;1126.40;;;;;;5092779;28;20040;-68
2021/04/09 06:50:36;;;;;;;17.60;14.30;;;435.40;1152.00;;;;;;5092245;28;20024;-69
2021/04/09 06:53:02;;;;;;;22.15;17.05;;;436.10;1075.20;;;;;;5092651;28;20028;-68
2021/04/09 06:55:28;;;;;;;21.58;16.55;;;486.50;1075.20;;;;;;5092542;28;20024;-67
2021/04/09 06:57:57;;;;;;;16.25;13.70;;;486.80;1049.60;;;;;;5092550;28;20104;-69
2021/04/09 07:00:27;;;;;;;18.92;16.02;;;487.00;1024.00;;;;;;5092200;28;20032;-67
2021/04/09 07:02:53;;;;;;;15.30;11.70;;;537.70;998.40;;;;;;5092335;28;20016;-69
2021/04/09 07:05:19;;;;;;;15.77;12.70;;;538.20;972.80;;;;;;5091193;28;20482;-68
2021/04/09 07:07:45;;;;;;;15.95;12.57;;;538.40;921.60;;;;;;5092442;28;20024;-68
2021/04/09 07:10:11;;;;;;;20.55;16.88;;;563.60;947.20;;;;;;5091910;28;20043;-69
2021/04/09 07:12:37;;;;;;;13.25;11.60;;;563.60;921.60;;;;;;5089067;28;20386;-69
2021/04/09 07:15:04;;;;;;;13.00;11.60;;;563.50;921.60;;;;;;5071830;28;20019;-69
2021/04/09 07:17:32;;;;;;;13.77;11.60;;;563.90;896.00;;;;;;5071866;28;20031;-68
2021/04/09 07:20:14;;;;;;;14.38;11.88;;;589.20;870.40;;;;;;5071758;28;20371;-69
2021/04/09 07:22:45;;;;;;;13.48;11.45;;;589.30;870.40;;;;;;5082553;28;20032;-69
2021/04/09 07:25:19;;;;;;;11.45;9.60;;;614.70;844.80;;;;;;5091747;28;20020;-70
2021/04/09 07:27:47;;;;;;;14.52;12.77;;;614.90;819.20;;;;;;5092421;28;20082;-69
2021/04/09 07:30:19;;;;;;;12.70;10.52;;;589.70;819.20;;;;;;5091653;28;20093;-69
2021/04/09 07:32:45;;;;;;;14.75;12.05;;;640.40;793.60;;;;;;5091728;28;20032;-69
2021/04/09 07:35:14;;;;;;;30.40;23.08;;;665.80;768.00;;;;;;5091619;28;20024;-69
2021/04/09 07:37:58;;;;;;;10.68;9.43;;;666.20;742.40;;;;;;5091762;28;20381;-67
2021/04/09 07:40:33;;;;;;;12.73;10.50;;;666.30;742.40;;;;;;5091617;28;20032;-66
2021/04/09 07:43:00;;;;;;;15.60;13.77;;;691.30;768.00;;;;;;5091369;28;20048;-67
2021/04/09 07:45:29;;;;;;;13.38;10.25;;;717.50;742.40;;;;;;5091617;28;20274;-68
2021/04/09 07:48:05;;;;;;;10.65;9.40;;;743.00;742.40;;;;;;5091573;28;20027;-68
2021/04/09 07:50:43;;;;;;;11.93;9.23;;;768.30;716.80;;;;;;5089816;28;20024;-67
2021/04/09 07:53:35;;;;;;;7.95;6.93;;;768.60;691.20;;;;;;5091775;28;20448;-68
2021/04/09 07:56:06;;;;;;;7.20;5.55;;;819.30;665.60;;;;;;5091577;28;20024;-68
2021/04/09 07:58:32;;;;;;;9.13;6.90;;;820.10;640.00;;;;;;5091332;28;20028;-69
2021/04/09 08:00:58;;;;;;;7.38;6.38;;;845.20;665.60;;;;;;5091325;28;20047;-68
2021/04/09 08:03:40;;;;;;;9.93;7.88;;;845.70;640.00;;;;;;5089618;28;20385;-68
2021/04/09 08:06:07;;;;;;;9.32;6.22;;;871.10;614.40;;;;;;5091169;28;20573;-71
2021/04/09 08:08:32;;;;;;;8.35;7.03;;;896.30;588.80;;;;;;5090844;28;20028;-68
2021/04/09 08:11:19;;;;;;;11.10;8.68;;;870.90;614.40;;;;;;5091265;28;20351;-68
2021/04/09 08:13:55;;;;;;;6.80;5.35;;;871.20;588.80;;;;;;5091381;28;20024;-69
2021/04/09 08:16:55;;;;;;;10.40;7.30;;;896.90;588.80;;;;;;5091046;28;20019;-69
2021/04/09 08:19:25;;;;;;;8.60;6.20;;;922.40;588.80;;;;;;5089397;28;20108;-69
2021/04/09 08:21:54;;;;;;;11.00;9.52;;;947.50;563.20;;;;;;5091018;28;20020;-70
2021/04/09 08:24:23;;;;;;;9.73;8.27;;;947.80;563.20;;;;;;5090902;28;20043;-69
2021/04/09 08:26:50;;;;;;;7.35;6.30;;;972.90;588.80;;;;;;5091234;28;20264;-69
2021/04/09 08:29:17;;;;;;;7.28;6.20;;;972.90;563.20;;;;;;5090566;28;20035;-69
2021/04/09 08:31:43;;;;;;;7.80;5.95;;;973.50;563.20;;;;;;5090966;28;20028;-69
2021/04/09 08:34:11;;;;;;;10.70;8.55;;;998.40;563.20;;;;;;5090881;28;20023;-69
2021/04/09 08:36:42;;;;;;;8.02;6.10;;;998.50;563.20;;;;;;5091004;28;20578;-70
2021/04/09 08:39:09;;;;;;;7.63;6.82;;;998.50;563.20;;;;;;5090465;28;20028;-69
2021/04/09 08:41:37;;;;;;;6.95;5.55;;;1024.20;537.60;;;;;;5090931;28;20024;-69
2021/04/09 08:44:05;;;;;;;7.63;5.90;;;999.30;537.60;;;;;;5090851;28;20394;-68
2021/04/09 08:46:31;;;;;;;6.80;5.53;;;1024.00;537.60;;;;;;5090773;28;20024;-69
2021/04/09 08:48:58;;;;;;;10.38;8.60;;;999.00;537.60;;;;;;5090098;28;20038;-68
2021/04/09 08:51:25;;;;;;;9.18;6.97;;;999.00;563.20;;;;;;5090903;28;20013;-68
2021/04/09 08:53:50;;;;;;;7.57;6.13;;;998.60;563.20;;;;;;5090388;28;20028;-69
2021/04/09 08:56:37;;;;;;;7.13;5.80;;;973.70;563.20;;;;;;5090703;28;20028;-69
2021/04/09 08:59:03;;;;;;;7.53;5.88;;;999.00;537.60;;;;;;5090039;28;20103;-69
2021/04/09 09:01:29;;;;;;;7.85;6.10;;;999.30;537.60;;;;;;5090802;28;20039;-69
2021/04/09 09:04:21;;;;;;;7.72;6.40;;;1024.10;537.60;;;;;;5090180;28;20028;-70
2021/04/09 09:06:49;;;;;;;6.55;5.85;;;1024.60;537.60;;;;;;5090701;28;20356;-69
2021/04/09 09:09:31;;;;;;;7.55;6.18;;;1050.10;512.00;;;;;;5089958;28;20016;-69
2021/04/09 09:12:00;;;;;;;12.40;11.38;;;1049.70;537.60;;;;;;5090542;28;20089;-69
2021/04/09 09:14:46;;;;;;;6.38;5.72;;;1024.70;512.00;;;;;;5090379;28;20068;-69
2021/04/09 09:17:21;;;;;;;6.13;4.80;;;998.70;537.60;;;;;;5094284;28;20155;-69
2021/04/09 09:19:48;;;;;;;6.35;5.57;;;998.80;512.00;;;;;;5093947;28;20150;-70
2021/04/09 09:22:19;;;;;;;7.50;5.35;;;922.00;563.20;;;;;;5094151;28;20028;-69
2021/04/09 09:25:01;;;;;;;8.15;6.15;;;921.90;537.60;;;;;;5083145;28;20100;-69
2021/04/09 09:27:45;;;;;;;22.45;20.20;;;947.30;537.60;;;;;;5072831;28;20012;-74
2021/04/09 09:30:28;;;;;;;15.35;12.73;;;972.90;563.20;;;;;;5069486;28;20108;-73
2021/04/09 09:33:20;;;;;;;8.55;7.20;;;947.20;512.00;;;;;;5072945;28;20021;-72
2021/04/09 09:36:06;;;;;;;9.43;6.93;;;896.70;486.40;;;;;;5066613;28;20059;-69
2021/04/09 09:38:55;;;;;;;8.35;7.10;;;871.00;537.60;;;;;;5073239;28;20024;-69
2021/04/09 09:41:44;;;;;;;6.65;5.22;;;819.30;588.80;;;;;;5073739;28;20035;-70
2021/04/09 09:44:46;;;;;;;8.82;6.80;;;742.70;640.00;;;;;;5073187;28;20055;-70
2021/04/09 09:47:31;;;;;;;15.00;12.73;;;666.30;640.00;;;;;;5074337;28;20496;-70
2021/04/09 09:50:03;;;;;;;13.90;10.65;;;615.10;665.60;;;;;;5074284;28;20029;-71
2021/04/09 09:53:16;;;;;;;21.10;15.65;;;589.00;716.80;;;;;;5075962;28;20382;-70
2021/04/09 09:55:46;;;;;;;6.40;4.32;;;538.50;716.80;;;;;;5081249;28;20028;-70
2021/04/09 09:58:14;;;;;;;14.00;9.90;;;512.70;691.20;;;;;;5091606;28;20020;-71
2021/04/09 10:00:52;;;;;;;20.75;18.65;;;512.20;742.40;;;;;;5091857;28;20470;-70
2021/04/09 10:03:28;;;;;;;16.58;14.82;;;512.20;716.80;;;;;;5089817;28;20028;-71
2021/04/09 10:06:02;;;;;;;8.98;6.80;;;486.60;768.00;;;;;;5087184;28;20050;-71
2021/04/09 10:08:30;;;;;;;10.85;6.90;;;461.70;819.20;;;;;;5089266;28;20047;-76
2021/04/09 10:10:59;;;;;;;15.48;10.38;;;461.70;844.80;;;;;;5090466;28;20048;-71
2021/04/09 10:13:29;;;;;;;5.25;3.70;;;461.40;793.60;;;;;;5090758;28;20471;-71
2021/04/09 10:16:09;;;;;;;4.15;2.80;;;461.40;768.00;;;;;;5090480;28;20024;-70
2021/04/09 10:18:36;;;;;;;5.25;3.25;;;461.50;742.40;;;;;;5070759;28;20033;-70
2021/04/09 10:21:20;;;;;;;10.30;8.77;;;461.70;793.60;;;;;;5076910;28;20020;-70
2021/04/09 10:24:03;;;;;;;6.50;4.70;;;461.50;819.20;;;;;;5075187;28;20048;-70
2021/04/09 10:26:29;;;;;;;20.35;15.70;;;460.90;793.60;;;;;;5087069;28;20111;-69
2021/04/09 10:28:55;;;;;;;18.23;13.13;;;435.90;819.20;;;;;;5072034;28;20020;-70
2021/04/09 10:31:22;;;;;;;12.32;9.68;;;435.50;819.20;;;;;;5073554;28;20024;-70
2021/04/09 10:33:50;;;;;;;12.52;9.15;;;435.90;819.20;;;;;;5088333;28;20021;-68
2021/04/09 10:36:23;;;;;;;5.53;3.63;;;435.50;844.80;;;;;;5090005;28;20032;-72
2021/04/09 10:38:54;;;;;;;11.60;7.40;;;435.60;793.60;;;;;;5079175;28;20379;-70
2021/04/09 10:41:24;;;;;;;5.80;3.20;;;410.30;844.80;;;;;;5073788;28;20394;-70
2021/04/09 10:43:58;;;;;;;4.90;3.47;;;409.70;844.80;;;;;;5073330;28;20804;-72
2021/04/09 10:46:29;;;;;;;11.23;6.68;;;409.70;870.40;;;;;;5073394;28;20032;-71
2021/04/09 10:49:10;;;;;;;21.70;15.05;;;409.90;844.80;;;;;;5071381;28;20425;-72
2021/04/09 10:51:43;;;;;;;11.48;7.05;;;409.90;870.40;;;;;;5073491;28;20025;-71
2021/04/09 10:54:24;;;;;;;5.15;3.10;;;409.60;844.80;;;;;;5073137;28;20020;-71
2021/04/09 10:56:55;;;;;;;5.80;3.60;;;410.10;844.80;;;;;;5073711;28;20036;-72
2021/04/09 10:59:25;;;;;;;14.68;8.95;;;410.40;844.80;;;;;;5072777;28;20028;-72
2021/04/09 11:01:52;;;;;;;16.83;11.18;;;435.40;870.40;;;;;;5073237;28;20020;-71
2021/04/09 11:04:17;;;;;;;9.60;6.57;;;435.20;844.80;;;;;;5072590;28;20021;-72
2021/04/09 11:07:01;;;;;;;4.25;2.92;;;410.10;844.80;;;;;;5073382;28;20024;-71
2021/04/09 11:09:42;;;;;;;8.82;6.00;;;384.70;870.40;;;;;;5072527;28;20052;-73
2021/04/09 11:12:22;;;;;;;12.93;9.82;;;384.70;844.80;;;;;;5073151;28;20151;-72
2021/04/09 11:15:08;;;;;;;10.40;8.05;;;384.70;844.80;;;;;;5073019;28;20020;-72
2021/04/09 11:17:35;;;;;;;9.63;7.10;;;409.70;844.80;;;;;;5072905;28;20766;-72
2021/04/09 11:20:19;;;;;;;5.82;4.10;;;409.90;844.80;;;;;;5072644;28;20021;-73
2021/04/09 11:23:02;;;;;;;4.45;2.75;;;409.70;870.40;;;;;;5084298;28;20070;-74
2021/04/09 11:25:35;;;;;;;6.18;4.05;;;384.90;819.20;;;;;;5091495;28;20422;-69
2021/04/09 11:28:02;;;;;;;6.05;3.40;;;384.30;819.20;;;;;;5093602;28;20028;-70
2021/04/09 11:30:36;;;;;;;8.60;5.25;;;384.30;844.80;;;;;;5093273;28;20028;-70
2021/04/09 11:33:03;;;;;;;13.88;9.13;;;384.70;870.40;;;;;;5092906;28;20020;-69
2021/04/09 11:35:35;;;;;;;7.63;4.90;;;384.90;844.80;;;;;;5070700;28;20020;-69
2021/04/09 11:38:06;;;;;;;5.03;2.95;;;384.90;819.20;;;;;;5071535;28;20277;-67
2021/04/09 11:40:44;;;;;;;5.50;3.15;;;410.00;793.60;;;;;;5076009;28;20492;-69
2021/04/09 11:43:13;;;;;;;7.25;4.47;;;410.10;819.20;;;;;;5091305;28;20047;-69
2021/04/09 11:45:47;;;;;;;5.43;3.88;;;410.20;793.60;;;;;;5089942;28;20020;-69
2021/04/09 11:48:29;;;;;;;7.15;4.45;;;410.20;844.80;;;;;;5081063;28;20035;-69
2021/04/09 11:51:24;;;;;;;4.88;3.35;;;410.20;819.20;;;;;;5087807;28;20277;-68
2021/04/09 11:54:04;;;;;;;6.30;4.25;;;410.00;819.20;;;;;;5084756;28;20039;-69
2021/04/09 11:56:42;;;;;;;7.65;4.07;;;410.20;793.60;;;;;;5080256;28;20024;-68
2021/04/09 11:59:10;;;;;;;6.65;4.20;;;410.30;819.20;;;;;;5070823;28;20024;-75
2021/04/09 12:01:35;;;;;;;5.47;4.38;;;435.30;844.80;;;;;;5069363;28;20496;-69
2021/04/09 12:04:01;;;;;;;8.73;5.50;;;435.20;793.60;;;;;;5070733;28;20059;-73
2021/04/09 12:06:36;;;;;;;6.68;4.00;;;435.40;819.20;;;;;;5070152;28;20021;-69
2021/04/09 12:09:05;;;;;;;6.80;4.28;;;435.50;793.60;;;;;;5071360;28;20166;-71
2021/04/09 12:11:32;;;;;;;7.13;4.00;;;435.60;793.60;;;;;;5076431;28;20024;-70
2021/04/09 12:13:57;;;;;;;16.42;12.38;;;435.60;819.20;;;;;;5074382;28;20033;-72
2021/04/09 12:16:24;;;;;;;16.70;14.60;;;435.50;793.60;;;;;;5070516;28;20051;-69
2021/04/09 12:18:49;;;;;;;5.50;3.42;;;435.30;819.20;;;;;;5076392;28;20032;-70
2021/04/09 12:21:15;;;;;;;7.72;5.30;;;435.40;793.60;;;;;;5089782;28;20095;-70
2021/04/09 12:23:41;;;;;;;7.55;3.85;;;435.40;793.60;;;;;;5074714;28;20036;-70
2021/04/09 12:26:07;;;;;;;8.25;4.93;;;410.50;768.00;;;;;;5069746;28;20391;-70
2021/04/09 12:28:33;;;;;;;10.07;6.10;;;410.50;793.60;;;;;;5070815;28;20050;-71